createdAt,value
2023-02-18T00:01:13.534Z,98066.67
2023-02-18T00:03:44.063Z,98075.14
2023-02-18T00:06:35.634Z,98070.28
2023-02-18T00:09:06.821Z,98070.80
2023-02-18T00:11:37.433Z,98065.94
2023-02-18T00:14:13.785Z,98073.20
2023-02-18T00:16:44.679Z,98078.02
2023-02-18T00:19:20.005Z,98075.58
2023-02-18T00:21:50.862Z,98074.13
2023-02-18T00:24:22.810Z,98072.98
2023-02-18T00:26:55.229Z,98077.27
2023-02-18T00:29:26.471Z,98074.09
2023-02-18T00:31:56.696Z,98070.17
2023-02-18T00:34:26.616Z,98065.04
2023-02-18T00:36:57.633Z,98053.84
2023-02-18T00:39:27.207Z,98052.63
2023-02-18T00:41:57.276Z,98045.78
2023-02-18T00:44:27.642Z,98036.41
2023-02-18T00:47:00.272Z,98029.55
2023-02-18T00:49:30.760Z,98022.17
2023-02-18T00:52:00.794Z,98022.37
2023-02-18T00:54:30.803Z,98022.25
2023-02-18T00:57:01.903Z,98025.85
2023-02-18T00:59:36.774Z,98021.48
2023-02-18T01:02:08.291Z,98014.30
2023-02-18T01:04:37.588Z,98004.85
2023-02-18T01:07:08.573Z,98000.79
2023-02-18T01:09:40.139Z,97991.29
2023-02-18T01:12:10.664Z,97981.09
2023-02-18T01:14:41.316Z,97975.40
2023-02-18T01:17:11.336Z,97962.39
2023-02-18T01:19:43.605Z,97959.20
2023-02-18T01:22:14.464Z,97961.20
2023-02-18T01:24:49.368Z,97955.76
2023-02-18T01:27:20.226Z,97960.39
2023-02-18T01:29:49.926Z,97956.40
2023-02-18T01:32:24.208Z,97959.19
2023-02-18T01:34:53.619Z,97964.88
2023-02-18T01:37:23.296Z,97962.23
2023-02-18T01:39:54.194Z,97961.41
2023-02-18T01:42:29.948Z,97957.79
2023-02-18T01:45:39.672Z,97956.65
2023-02-18T01:48:43.012Z,97952.11
2023-02-18T01:51:18.113Z,97950.99
2023-02-18T01:53:51.469Z,97937.30
2023-02-18T01:56:26.451Z,97933.80
2023-02-18T01:59:00.634Z,97935.69
2023-02-18T02:01:32.865Z,97933.54
2023-02-18T02:04:04.511Z,97928.55
2023-02-18T02:06:33.679Z,97925.29
2023-02-18T02:09:07.667Z,97928.95
2023-02-18T02:12:08.915Z,97926.30
2023-02-18T02:15:17.610Z,97920.64
2023-02-18T02:17:56.023Z,97912.76
2023-02-18T02:20:59.568Z,97912.13
2023-02-18T02:23:59.249Z,97905.15
2023-02-18T02:26:52.734Z,97903.02
2023-02-18T02:30:24.957Z,97887.77
2023-02-18T02:33:26.287Z,97885.95
2023-02-18T02:36:16.768Z,97887.73
2023-02-18T02:38:58.800Z,97895.42
2023-02-18T02:41:52.374Z,97895.79
2023-02-18T02:44:35.342Z,97898.70
2023-02-18T02:47:58.001Z,97896.80
2023-02-18T02:50:44.850Z,97879.10
2023-02-18T02:53:31.101Z,97876.70
2023-02-18T02:56:00.780Z,97887.08
2023-02-18T02:58:35.473Z,97875.41
2023-02-18T03:01:11.255Z,97866.50
2023-02-18T03:04:11.119Z,97876.83
2023-02-18T03:06:58.835Z,97864.20
2023-02-18T03:10:00.710Z,97863.89
2023-02-18T03:13:06.257Z,97850.83
2023-02-18T03:15:58.043Z,97841.42
2023-02-18T03:18:39.341Z,97836.20
2023-02-18T03:21:11.674Z,97846.52
2023-02-18T03:24:10.534Z,97848.05
2023-02-18T03:26:49.269Z,97847.02
2023-02-18T03:29:22.028Z,97849.42
2023-02-18T03:31:58.125Z,97853.59
2023-02-18T03:34:36.315Z,97855.05
2023-02-18T03:37:10.374Z,97853.35
2023-02-18T03:39:47.106Z,97850.77
2023-02-18T03:42:26.168Z,97853.95
2023-02-18T03:44:56.958Z,97851.92
2023-02-18T03:47:26.726Z,97850.35
2023-02-18T03:49:56.038Z,97851.52
2023-02-18T03:52:25.844Z,97851.09
2023-02-18T03:54:55.206Z,97852.81
2023-02-18T03:57:25.245Z,97852.27
2023-02-18T03:59:54.771Z,97846.20
2023-02-18T04:02:24.193Z,97844.41
2023-02-18T04:04:57.243Z,97847.58
2023-02-18T04:07:28.390Z,97845.73
2023-02-18T04:09:57.959Z,97846.88
2023-02-18T04:12:27.916Z,97844.71
2023-02-18T04:14:57.912Z,97848.20
2023-02-18T04:17:28.008Z,97847.88
2023-02-18T04:20:00.919Z,97840.08
2023-02-18T04:22:33.143Z,97832.81
2023-02-18T04:25:07.250Z,97836.73
2023-02-18T04:27:37.070Z,97832.74
2023-02-18T04:30:08.896Z,97825.01
2023-02-18T04:32:42.357Z,97820.44
2023-02-18T04:35:12.241Z,97818.14
2023-02-18T04:37:42.529Z,97819.96
2023-02-18T04:40:13.886Z,97816.53
2023-02-18T04:42:44.363Z,97826.02
2023-02-18T04:45:13.891Z,97826.08
2023-02-18T04:47:44.594Z,97830.12
2023-02-18T04:50:14.467Z,97832.44
2023-02-18T04:52:43.968Z,97827.87
2023-02-18T04:55:14.987Z,97825.55
2023-02-18T04:57:44.631Z,97831.75
2023-02-18T05:00:20.608Z,97828.46
2023-02-18T05:02:49.619Z,97843.15
2023-02-18T05:05:19.812Z,97835.34
2023-02-18T05:07:49.695Z,97838.86
2023-02-18T05:10:20.805Z,97841.92
2023-02-18T05:12:51.060Z,97831.02
2023-02-18T05:15:21.300Z,97834.09
2023-02-18T05:17:51.934Z,97835.30
2023-02-18T05:20:21.416Z,97840.13
2023-02-18T05:22:51.357Z,97839.33
2023-02-18T05:25:21.398Z,97842.23
2023-02-18T05:27:51.336Z,97844.08
2023-02-18T05:30:22.811Z,97843.43
2023-02-18T05:32:52.663Z,97844.12
2023-02-18T05:35:22.549Z,97842.13
2023-02-18T05:37:52.437Z,97845.52
2023-02-18T05:40:22.467Z,97843.59
2023-02-18T05:42:51.975Z,97844.67
2023-02-18T05:45:22.204Z,97847.20
2023-02-18T05:47:54.705Z,97850.14
2023-02-18T05:50:26.923Z,97849.92
2023-02-18T05:52:58.418Z,97845.13
2023-02-18T05:55:29.294Z,97848.25
2023-02-18T05:57:58.936Z,97843.95
2023-02-18T06:00:35.389Z,97842.11
2023-02-18T06:03:07.565Z,97845.84
2023-02-18T06:05:40.006Z,97840.20
2023-02-18T06:08:12.534Z,97843.77
2023-02-18T06:10:42.325Z,97840.73
2023-02-18T06:13:19.255Z,97838.53
2023-02-18T06:15:54.031Z,97840.59
2023-02-18T06:18:26.018Z,97841.23
2023-02-18T06:20:56.263Z,97840.38
2023-02-18T06:23:28.525Z,97838.48
2023-02-18T06:26:00.325Z,97838.44
2023-02-18T06:28:31.014Z,97834.84
2023-02-18T06:31:01.668Z,97831.98
2023-02-18T06:33:36.441Z,97835.98
2023-02-18T06:36:09.854Z,97835.16
2023-02-18T06:38:45.675Z,97834.84
2023-02-18T06:41:16.033Z,97838.13
2023-02-18T06:43:46.177Z,97842.90
2023-02-18T06:46:16.250Z,97841.35
2023-02-18T06:48:45.848Z,97843.66
2023-02-18T06:51:16.925Z,97847.11
2023-02-18T06:53:47.714Z,97843.01
2023-02-18T06:56:18.458Z,97844.95
2023-02-18T06:58:53.136Z,97839.35
2023-02-18T07:01:23.477Z,97844.30
2023-02-18T07:03:53.674Z,97838.13
2023-02-18T07:06:22.948Z,97836.00
2023-02-18T07:08:53.214Z,97837.59
2023-02-18T07:11:23.286Z,97841.02
2023-02-18T07:13:53.779Z,97842.98
2023-02-18T07:16:23.569Z,97839.52
2023-02-18T07:18:53.537Z,97837.08
2023-02-18T07:21:25.633Z,97832.77
2023-02-18T07:23:55.168Z,97835.79
2023-02-18T07:26:29.179Z,97840.23
2023-02-18T07:29:00.028Z,97840.04
2023-02-18T07:31:30.735Z,97847.60
2023-02-18T07:34:00.415Z,97847.61
2023-02-18T07:36:30.120Z,97852.33
2023-02-18T07:39:00.341Z,97856.73
2023-02-18T07:41:29.892Z,97856.39
2023-02-18T07:44:04.460Z,97853.48
2023-02-18T07:46:42.327Z,97851.64
2023-02-18T07:49:12.342Z,97846.21
2023-02-18T07:51:42.279Z,97847.61
2023-02-18T07:54:12.990Z,97846.48
2023-02-18T07:56:43.670Z,97850.79
2023-02-18T07:59:15.127Z,97847.75
2023-02-18T08:01:45.211Z,97850.20
2023-02-18T08:04:15.905Z,97854.09
2023-02-18T08:06:49.222Z,97858.52
2023-02-18T08:09:19.111Z,97855.59
2023-02-18T08:11:52.084Z,97859.19
2023-02-18T08:14:22.295Z,97861.73
2023-02-18T08:16:52.375Z,97866.21
2023-02-18T08:19:24.046Z,97862.63
2023-02-18T08:21:55.129Z,97860.65
2023-02-18T08:25:03.116Z,97860.04
2023-02-18T08:27:35.425Z,97860.47
2023-02-18T08:30:08.135Z,97874.45
2023-02-18T08:32:38.311Z,97875.52
2023-02-18T08:35:13.419Z,97880.84
2023-02-18T08:37:53.127Z,97878.79
2023-02-18T08:40:26.057Z,97875.65
2023-02-18T08:42:57.941Z,97883.80
2023-02-18T08:45:27.608Z,97885.70
2023-02-18T08:48:18.911Z,97885.34
2023-02-18T08:50:48.850Z,97884.09
2023-02-18T08:53:19.570Z,97884.04
2023-02-18T08:55:49.464Z,97883.29
2023-02-18T08:58:19.978Z,97875.43
2023-02-18T09:00:49.359Z,97877.17
2023-02-18T09:03:20.403Z,97875.14
2023-02-18T09:05:50.254Z,97869.32
2023-02-18T09:08:19.995Z,97872.20
2023-02-18T09:10:49.758Z,97875.34
2023-02-18T09:13:19.551Z,97869.66
2023-02-18T09:16:14.124Z,97871.94
2023-02-18T09:19:00.446Z,97870.67
2023-02-18T09:21:30.836Z,97882.62
2023-02-18T09:24:01.204Z,97883.98
2023-02-18T09:26:49.403Z,97890.83
2023-02-18T09:29:20.371Z,97893.34
2023-02-18T09:31:51.222Z,97902.77
2023-02-18T09:34:23.652Z,97900.45
2023-02-18T09:36:55.693Z,97896.96
2023-02-18T09:39:34.068Z,97896.91
2023-02-18T09:42:11.049Z,97901.44
2023-02-18T09:44:49.430Z,97903.13
2023-02-18T09:47:39.490Z,97906.10
2023-02-18T09:50:31.812Z,97910.47
2023-02-18T09:53:04.492Z,97906.45
2023-02-18T09:55:41.613Z,97905.23
2023-02-18T09:58:18.197Z,97904.77
2023-02-18T10:01:22.320Z,97904.54
2023-02-18T10:03:52.827Z,97905.57
2023-02-18T10:06:31.588Z,97905.73
2023-02-18T10:09:24.975Z,97902.20
2023-02-18T10:12:17.038Z,97902.42
2023-02-18T10:14:54.739Z,97897.05
2023-02-18T10:17:46.966Z,97899.77
2023-02-18T10:20:39.792Z,97890.11
2023-02-18T10:23:11.658Z,97887.20
2023-02-18T10:25:46.866Z,97889.06
2023-02-18T10:28:17.882Z,97887.61
2023-02-18T10:30:58.560Z,97886.06
2023-02-18T10:33:36.709Z,97881.58
2023-02-18T10:36:32.146Z,97875.78
2023-02-18T10:39:33.449Z,97864.78
2023-02-18T10:42:17.818Z,97867.82
2023-02-18T10:45:12.792Z,97860.19
2023-02-18T10:48:01.289Z,97855.20
2023-02-18T10:50:43.551Z,97844.48
2023-02-18T10:53:22.954Z,97839.48
2023-02-18T10:55:55.234Z,97838.96
2023-02-18T10:58:35.955Z,97840.03
2023-02-18T11:01:16.324Z,97840.55
2023-02-18T11:04:06.087Z,97834.72
2023-02-18T11:06:48.642Z,97833.36
2023-02-18T11:09:36.688Z,97831.36
2023-02-18T11:12:27.154Z,97835.13
2023-02-18T11:15:18.340Z,97835.31
2023-02-18T11:17:51.413Z,97834.23
2023-02-18T11:20:30.488Z,97830.50
2023-02-18T11:23:08.897Z,97824.48
2023-02-18T11:25:42.132Z,97828.49
2023-02-18T11:28:18.685Z,97822.17
2023-02-18T11:30:54.938Z,97827.16
2023-02-18T11:33:35.808Z,97817.02
2023-02-18T11:36:15.782Z,97814.86
2023-02-18T11:38:51.353Z,97814.58
2023-02-18T11:41:31.839Z,97805.33
2023-02-18T11:44:03.543Z,97803.26
2023-02-18T11:46:34.506Z,97798.95
2023-02-18T11:49:26.386Z,97791.30
2023-02-18T11:52:16.343Z,97791.77
2023-02-18T11:55:06.545Z,97789.52
2023-02-18T11:57:41.994Z,97794.64
2023-02-18T12:00:25.518Z,97798.59
2023-02-18T12:02:59.204Z,97789.40
2023-02-18T12:05:33.228Z,97790.25
2023-02-18T12:08:19.228Z,97793.84
2023-02-18T12:10:53.970Z,97792.61
2023-02-18T12:13:35.155Z,97786.86
2023-02-18T12:16:27.192Z,97781.89
2023-02-18T12:19:21.770Z,97780.28
2023-02-18T12:21:56.281Z,97774.53
2023-02-18T12:25:10.817Z,97776.34
2023-02-18T12:27:51.508Z,97773.75
2023-02-18T12:30:53.444Z,97774.08
2023-02-18T12:33:28.027Z,97774.64
2023-02-18T12:36:07.593Z,97774.08
2023-02-18T12:38:56.521Z,97774.98
2023-02-18T12:41:45.362Z,97769.19
2023-02-18T12:44:35.100Z,97770.30
2023-02-18T12:47:23.669Z,97762.11
2023-02-18T12:50:01.530Z,97770.59
2023-02-18T12:53:05.282Z,97764.52
2023-02-18T12:55:54.122Z,97767.10
2023-02-18T12:58:35.172Z,97762.69
2023-02-18T13:01:47.875Z,97765.33
2023-02-18T13:04:26.556Z,97770.42
2023-02-18T13:07:33.519Z,97763.73
2023-02-18T13:10:24.465Z,97766.91
2023-02-18T13:13:01.879Z,97769.45
2023-02-18T13:15:33.766Z,97768.11
2023-02-18T13:18:09.658Z,97770.14
2023-02-18T13:20:47.118Z,97764.64
2023-02-18T13:23:28.757Z,97758.80
2023-02-18T13:26:02.860Z,97761.34
2023-02-18T13:28:42.098Z,97753.33
2023-02-18T13:31:53.049Z,97755.91
2023-02-18T13:34:51.487Z,97753.69
2023-02-18T13:37:34.666Z,97756.38
2023-02-18T13:40:09.289Z,97755.41
2023-02-18T13:42:39.580Z,97760.32
2023-02-18T13:45:33.544Z,97753.21
2023-02-18T13:48:27.507Z,97752.20
2023-02-18T13:51:06.679Z,97751.07
2023-02-18T13:53:43.407Z,97755.59
2023-02-18T13:56:26.931Z,97756.98
2023-02-18T13:59:11.461Z,97752.11
2023-02-18T14:01:49.851Z,97751.75
2023-02-18T14:04:56.758Z,97750.66
2023-02-18T14:07:46.869Z,97753.42
2023-02-18T14:10:19.748Z,97736.90
2023-02-18T14:13:42.209Z,97741.14
2023-02-18T14:16:12.793Z,97738.46
2023-02-18T14:18:51.151Z,97744.48
2023-02-18T14:21:37.541Z,97745.30
2023-02-18T14:24:10.932Z,97742.07
2023-02-18T14:26:49.481Z,97740.13
2023-02-18T14:29:31.578Z,97730.62
2023-02-18T14:32:05.425Z,97729.66
2023-02-18T14:34:46.682Z,97727.19
2023-02-18T14:37:44.380Z,97732.27
2023-02-18T14:40:37.112Z,97738.49
2023-02-18T14:43:32.177Z,97742.21
2023-02-18T14:46:11.297Z,97738.46
2023-02-18T14:48:58.529Z,97743.86
2023-02-18T14:51:32.249Z,97739.46
2023-02-18T14:54:15.583Z,97736.10
2023-02-18T14:57:01.445Z,97725.20
2023-02-18T14:59:44.751Z,97733.21
2023-02-18T15:02:28.049Z,97726.19
2023-02-18T15:05:23.093Z,97722.58
2023-02-18T15:08:17.705Z,97716.67
2023-02-18T15:11:04.031Z,97728.08
2023-02-18T15:13:47.357Z,97728.42
2023-02-18T15:16:34.202Z,97724.33
2023-02-18T15:19:07.088Z,97719.90
2023-02-18T15:21:43.644Z,97720.63
2023-02-18T15:24:33.341Z,97721.35
2023-02-18T15:27:24.041Z,97717.09
2023-02-18T15:29:58.809Z,97712.35
2023-02-18T15:32:32.126Z,97710.30
2023-02-18T15:35:14.959Z,97709.17
2023-02-18T15:37:56.734Z,97709.02
2023-02-18T15:40:41.167Z,97705.13
2023-02-18T15:43:18.444Z,97705.58
2023-02-18T15:45:55.661Z,97707.02
2023-02-18T15:48:47.908Z,97708.28
2023-02-18T15:51:25.548Z,97710.69
2023-02-18T15:54:00.136Z,97707.04
2023-02-18T15:56:41.911Z,97704.08
2023-02-18T15:59:21.850Z,97702.35
2023-02-18T16:02:10.748Z,97705.61
2023-02-18T16:04:48.684Z,97708.88
2023-02-18T16:07:33.204Z,97705.52
2023-02-18T16:10:37.293Z,97699.45
2023-02-18T16:13:08.804Z,97697.41
2023-02-18T16:15:41.280Z,97699.77
2023-02-18T16:18:37.166Z,97696.11
2023-02-18T16:21:20.477Z,97693.01
2023-02-18T16:24:00.125Z,97696.85
2023-02-18T16:26:45.086Z,97690.39
2023-02-18T16:29:36.963Z,97687.14
2023-02-18T16:32:07.455Z,97687.67
2023-02-18T16:34:38.486Z,97685.37
2023-02-18T16:37:31.179Z,97694.20
2023-02-18T16:40:01.545Z,97691.75
2023-02-18T16:42:31.327Z,97691.80
2023-02-18T16:45:01.795Z,97694.36
2023-02-18T16:47:31.901Z,97699.35
2023-02-18T16:50:05.624Z,97696.86
2023-02-18T16:52:35.654Z,97700.38
2023-02-18T16:55:19.353Z,97698.81
2023-02-18T16:57:52.404Z,97699.98
2023-02-18T17:00:24.523Z,97704.77
2023-02-18T17:02:57.535Z,97707.57
2023-02-18T17:05:32.563Z,97706.74
2023-02-18T17:08:27.976Z,97705.33
2023-02-18T17:10:59.298Z,97707.19
2023-02-18T17:13:32.007Z,97711.46
2023-02-18T17:16:04.431Z,97709.27
2023-02-18T17:18:34.580Z,97700.23
2023-02-18T17:21:07.478Z,97696.49
2023-02-18T17:23:38.890Z,97696.03
2023-02-18T17:26:27.554Z,97686.04
2023-02-18T17:29:00.978Z,97687.36
2023-02-18T17:31:35.720Z,97687.34
2023-02-18T17:34:08.625Z,97683.55
2023-02-18T17:36:43.187Z,97684.81
2023-02-18T17:39:18.810Z,97680.42
2023-02-18T17:41:49.510Z,97673.52
2023-02-18T17:44:24.257Z,97665.01
2023-02-18T17:46:55.309Z,97658.02
2023-02-18T17:49:25.748Z,97656.59
2023-02-18T17:51:57.851Z,97655.96
2023-02-18T17:54:32.343Z,97654.30
2023-02-18T17:57:02.135Z,97653.66
2023-02-18T17:59:35.128Z,97650.29
2023-02-18T18:02:25.693Z,97643.95
2023-02-18T18:04:59.921Z,97640.13
2023-02-18T18:07:32.898Z,97638.56
2023-02-18T18:10:02.954Z,97639.38
2023-02-18T18:12:36.269Z,97637.01
2023-02-18T18:15:23.899Z,97627.36
2023-02-18T18:17:58.879Z,97624.96
2023-02-18T18:20:32.701Z,97623.55
2023-02-18T18:23:08.968Z,97621.83
2023-02-18T18:25:43.494Z,97621.40
2023-02-18T18:28:22.532Z,97616.27
2023-02-18T18:30:56.500Z,97608.47
2023-02-18T18:33:36.173Z,97601.25
2023-02-18T18:36:08.308Z,97596.72
2023-02-18T18:38:44.044Z,97600.95
2023-02-18T18:41:19.727Z,97594.71
2023-02-18T18:43:50.115Z,97592.59
2023-02-18T18:46:25.512Z,97592.93
2023-02-18T18:48:55.171Z,97587.98
2023-02-18T18:51:30.801Z,97584.14
2023-02-18T18:54:01.908Z,97590.66
2023-02-18T18:56:31.335Z,97581.63
2023-02-18T18:59:09.097Z,97580.37
2023-02-18T19:01:40.098Z,97573.39
2023-02-18T19:04:10.200Z,97574.33
2023-02-18T19:06:41.205Z,97572.98
2023-02-18T19:09:25.764Z,97574.13
2023-02-18T19:12:04.385Z,97558.52
2023-02-18T19:14:33.684Z,97558.63
2023-02-18T19:17:04.571Z,97562.89
2023-02-18T19:19:33.926Z,97549.70
2023-02-18T19:22:09.266Z,97556.02
2023-02-18T19:24:39.689Z,97562.52
2023-02-18T19:27:10.701Z,97554.41
2023-02-18T19:29:41.180Z,97541.48
2023-02-18T19:32:11.536Z,97542.66
2023-02-18T19:34:42.534Z,97542.68
2023-02-18T19:37:12.675Z,97538.80
2023-02-18T19:39:42.121Z,97528.02
2023-02-18T19:42:56.347Z,97526.03
2023-02-18T19:45:26.206Z,97521.71
2023-02-18T19:48:17.698Z,97521.73
2023-02-18T19:50:55.564Z,97514.42
2023-02-18T19:53:26.536Z,97508.21
2023-02-18T19:56:11.957Z,97494.45
2023-02-18T19:58:44.754Z,97481.95
2023-02-18T20:01:28.418Z,97475.36
2023-02-18T20:04:11.740Z,97467.02
2023-02-18T20:06:42.110Z,97471.23
2023-02-18T20:09:12.896Z,97475.27
2023-02-18T20:11:52.365Z,97466.69
2023-02-18T20:14:24.381Z,97461.92
2023-02-18T20:16:56.682Z,97452.13
2023-02-18T20:19:30.910Z,97445.98
2023-02-18T20:22:02.807Z,97459.14
2023-02-18T20:24:32.566Z,97460.77
2023-02-18T20:27:08.478Z,97469.71
2023-02-18T20:33:20.069Z,97455.69
2023-02-18T20:35:59.798Z,97460.77
2023-02-18T20:38:31.300Z,97461.31
2023-02-18T20:41:18.234Z,97464.42
2023-02-18T20:43:49.222Z,97469.92
2023-02-18T20:46:22.510Z,97475.85
2023-02-18T20:48:52.815Z,97474.97
2023-02-18T20:51:23.692Z,97471.29
2023-02-18T20:54:00.287Z,97468.62
2023-02-18T20:56:31.145Z,97466.15
2023-02-18T20:59:02.369Z,97466.84
2023-02-18T21:01:33.346Z,97461.69
2023-02-18T21:04:04.326Z,97459.36
2023-02-18T21:06:34.427Z,97456.31
2023-02-18T21:09:06.148Z,97464.60
2023-02-18T21:11:35.580Z,97464.32
2023-02-18T21:14:05.986Z,97468.44
2023-02-18T21:16:41.602Z,97466.55
2023-02-18T21:19:17.532Z,97466.80
2023-02-18T21:21:47.967Z,97463.16
2023-02-18T21:24:18.354Z,97456.08
2023-02-18T21:26:48.004Z,97456.20
2023-02-18T21:29:17.900Z,97467.67
2023-02-18T21:31:47.920Z,97471.77
2023-02-18T21:34:18.131Z,97479.69
2023-02-18T21:36:47.366Z,97490.69
2023-02-18T21:39:17.412Z,97503.06
2023-02-18T21:41:47.353Z,97505.89
2023-02-18T21:44:17.372Z,97509.54
2023-02-18T21:46:47.013Z,97504.76
2023-02-18T21:49:18.213Z,97506.10
2023-02-18T21:52:02.471Z,97502.02
2023-02-18T21:54:38.013Z,97509.02
2023-02-18T21:57:12.401Z,97513.59
2023-02-18T21:59:42.739Z,97519.70
2023-02-18T22:02:17.826Z,97518.95
2023-02-18T22:04:49.568Z,97516.52
2023-02-18T22:07:21.634Z,97520.49
2023-02-18T22:09:54.290Z,97519.84
2023-02-18T22:12:31.216Z,97527.00
2023-02-18T22:15:00.945Z,97526.70
2023-02-18T22:17:32.713Z,97526.15
2023-02-18T22:20:05.905Z,97530.54
2023-02-18T22:22:36.859Z,97531.95
2023-02-18T22:25:11.151Z,97535.71
2023-02-18T22:27:40.988Z,97538.80
2023-02-18T22:30:21.464Z,97539.02
2023-02-18T22:32:53.821Z,97539.17
2023-02-18T22:35:23.885Z,97533.43
2023-02-18T22:37:54.862Z,97543.23
2023-02-18T22:40:27.522Z,97542.20
2023-02-18T22:42:58.212Z,97545.64
2023-02-18T22:45:27.655Z,97545.69
2023-02-18T22:47:58.109Z,97547.77
2023-02-18T22:50:31.524Z,97550.48
2023-02-18T22:53:02.400Z,97543.19
2023-02-18T22:55:32.742Z,97553.64
2023-02-18T22:58:05.677Z,97546.70
2023-02-18T23:00:38.785Z,97549.91
2023-02-18T23:03:09.692Z,97559.69
2023-02-18T23:05:41.843Z,97552.76
2023-02-18T23:08:11.942Z,97548.81
2023-02-18T23:10:42.019Z,97552.20
2023-02-18T23:13:12.091Z,97556.66
2023-02-18T23:15:42.051Z,97553.90
2023-02-18T23:18:15.442Z,97554.84
2023-02-18T23:21:05.361Z,97561.80
2023-02-18T23:23:39.444Z,97562.45
2023-02-18T23:26:08.667Z,97558.84
2023-02-18T23:28:48.614Z,97565.08
2023-02-18T23:31:25.149Z,97566.90
2023-02-18T23:34:01.101Z,97566.87
2023-02-18T23:36:34.024Z,97567.42
2023-02-18T23:39:11.434Z,97570.54
2023-02-18T23:41:41.812Z,97571.99
2023-02-18T23:44:15.863Z,97577.10
2023-02-18T23:46:46.757Z,97576.98
2023-02-18T23:49:26.535Z,97576.16
2023-02-18T23:51:58.568Z,97574.17
2023-02-18T23:54:28.196Z,97574.15
2023-02-18T23:56:58.098Z,97566.77
2023-02-18T23:59:27.636Z,97570.02
